createdAt,value
2023-03-29T00:00:52.073Z,88707.00
2023-03-29T00:02:52.048Z,88699.00
2023-03-29T00:03:52.097Z,88697.00
2023-03-29T00:04:51.933Z,88695.00
2023-03-29T00:07:51.881Z,88697.00
2023-03-29T00:09:51.850Z,88687.00
2023-03-29T00:11:51.804Z,88681.00
2023-03-29T00:13:51.770Z,88689.00
2023-03-29T00:16:51.752Z,88691.00
2023-03-29T00:17:51.736Z,88699.00
2023-03-29T00:18:51.672Z,88707.00
2023-03-29T00:19:51.667Z,88713.00
2023-03-29T00:20:51.680Z,88715.00
2023-03-29T00:22:51.622Z,88724.00
2023-03-29T00:23:51.625Z,88728.00
2023-03-29T00:24:51.570Z,88732.00
2023-03-29T00:25:51.573Z,88738.00
2023-03-29T00:29:51.468Z,88742.00
2023-03-29T00:31:51.560Z,88715.00
2023-03-29T00:33:51.395Z,88705.00
2023-03-29T00:34:51.357Z,88707.00
2023-03-29T00:35:51.424Z,88707.00
2023-03-29T00:36:51.327Z,88713.00
2023-03-29T00:40:51.229Z,88726.00
2023-03-29T00:41:51.207Z,88732.00
2023-03-29T00:42:51.207Z,88732.00
2023-03-29T00:43:51.178Z,88728.00
2023-03-29T00:45:51.143Z,88719.00
2023-03-29T00:47:51.133Z,88709.00
2023-03-29T00:50:51.049Z,88707.00
2023-03-29T00:51:51.034Z,88705.00
2023-03-29T00:52:51.000Z,88705.00
2023-03-29T00:55:50.932Z,88703.00
2023-03-29T00:56:50.944Z,88699.00
2023-03-29T00:57:50.894Z,88699.00
2023-03-29T00:58:50.872Z,88699.00
2023-03-29T01:02:50.889Z,88703.00
2023-03-29T01:04:50.769Z,88705.00
2023-03-29T01:06:50.801Z,88705.00
2023-03-29T01:07:50.716Z,88701.00
2023-03-29T01:08:50.672Z,88701.00
2023-03-29T01:10:50.651Z,88699.00
2023-03-29T01:13:50.585Z,88711.00
2023-03-29T01:15:50.542Z,88722.00
2023-03-29T01:16:50.588Z,88730.00
2023-03-29T01:17:50.557Z,88736.00
2023-03-29T01:19:50.482Z,88742.00
2023-03-29T01:22:50.420Z,88732.00
2023-03-29T01:23:50.391Z,88730.00
2023-03-29T01:24:50.375Z,88726.00
2023-03-29T01:28:50.280Z,88726.00
2023-03-29T01:29:50.271Z,88722.00
2023-03-29T01:32:50.261Z,88709.00
2023-03-29T01:33:50.175Z,88707.00
2023-03-29T01:34:50.193Z,88705.00
2023-03-29T01:35:50.275Z,88709.00
2023-03-29T01:36:50.265Z,88711.00
2023-03-29T01:37:50.306Z,88715.00
2023-03-29T01:38:50.354Z,88715.00
2023-03-29T01:39:50.383Z,88711.00
2023-03-29T01:40:50.426Z,88715.00
2023-03-29T01:41:50.467Z,88713.00
2023-03-29T01:42:50.506Z,88717.00
2023-03-29T01:43:50.550Z,88719.00
2023-03-29T01:44:50.587Z,88719.00
2023-03-29T01:45:50.635Z,88719.00
2023-03-29T01:46:50.663Z,88717.00
2023-03-29T01:47:50.728Z,88721.00
2023-03-29T01:48:50.716Z,88722.00
2023-03-29T01:49:50.760Z,88726.00
2023-03-29T01:50:50.793Z,88728.00
2023-03-29T01:51:50.847Z,88728.00
2023-03-29T01:52:50.882Z,88724.00
2023-03-29T01:53:50.942Z,88722.00
2023-03-29T01:54:50.956Z,88721.00
2023-03-29T01:55:50.998Z,88721.00
2023-03-29T01:56:51.043Z,88719.00
2023-03-29T01:57:51.085Z,88721.00
2023-03-29T01:58:51.095Z,88724.00
2023-03-29T01:59:51.125Z,88726.00
2023-03-29T02:00:51.175Z,88726.00
2023-03-29T02:01:51.278Z,88728.00
2023-03-29T02:02:51.368Z,88730.00
2023-03-29T02:03:51.284Z,88730.00
2023-03-29T02:04:51.335Z,88724.00
2023-03-29T02:05:51.347Z,88721.00
2023-03-29T02:06:51.402Z,88719.00
2023-03-29T02:07:51.445Z,88722.00
2023-03-29T02:08:51.464Z,88724.00
2023-03-29T02:09:51.508Z,88721.00
2023-03-29T02:10:51.550Z,88721.00
2023-03-29T02:11:51.600Z,88721.00
2023-03-29T02:12:51.625Z,88724.00
2023-03-29T02:13:51.660Z,88726.00
2023-03-29T02:14:51.698Z,88726.00
2023-03-29T02:15:51.743Z,88724.00
2023-03-29T02:16:51.756Z,88724.00
2023-03-29T02:17:51.841Z,88724.00
2023-03-29T02:18:51.838Z,88724.00
2023-03-29T02:19:51.898Z,88726.00
2023-03-29T02:20:51.940Z,88728.00
2023-03-29T02:23:52.041Z,88719.00
2023-03-29T02:24:52.074Z,88724.00
2023-03-29T02:25:52.114Z,88726.00
2023-03-29T02:26:52.150Z,88726.00
2023-03-29T02:27:52.212Z,88724.00
2023-03-29T02:28:52.251Z,88721.00
2023-03-29T02:29:52.278Z,88715.00
2023-03-29T02:30:52.329Z,88709.00
2023-03-29T02:31:52.378Z,88701.00
2023-03-29T02:32:52.437Z,88697.00
2023-03-29T02:33:52.435Z,88691.00
2023-03-29T02:34:52.479Z,88689.00
2023-03-29T02:35:52.562Z,88685.00
2023-03-29T02:36:52.543Z,88689.00
2023-03-29T02:37:52.615Z,88695.00
2023-03-29T02:38:52.616Z,88701.00
2023-03-29T02:39:52.689Z,88699.00
2023-03-29T02:40:52.698Z,88697.00
2023-03-29T02:41:52.733Z,88701.00
2023-03-29T02:42:52.774Z,88703.00
2023-03-29T02:43:52.807Z,88705.00
2023-03-29T02:46:52.951Z,88711.00
2023-03-29T02:47:52.989Z,88715.00
2023-03-29T02:48:53.014Z,88717.00
2023-03-29T02:49:53.045Z,88719.00
2023-03-29T02:50:53.086Z,88722.00
2023-03-29T02:51:53.134Z,88719.00
2023-03-29T02:52:53.180Z,88713.00
2023-03-29T02:53:53.223Z,88711.00
2023-03-29T02:54:53.256Z,88709.00
2023-03-29T02:55:53.300Z,88707.00
2023-03-29T02:56:53.366Z,88703.00
2023-03-29T02:57:53.387Z,88697.00
2023-03-29T02:58:53.444Z,88691.00
2023-03-29T02:59:53.481Z,88687.00
2023-03-29T03:00:53.538Z,88685.00
2023-03-29T03:01:53.753Z,88683.00
2023-03-29T03:02:53.687Z,88681.00
2023-03-29T03:03:53.813Z,88687.00
2023-03-29T03:04:53.724Z,88685.00
2023-03-29T03:05:53.773Z,88685.00
2023-03-29T03:06:53.817Z,88681.00
2023-03-29T03:07:53.884Z,88687.00
2023-03-29T03:08:53.909Z,88689.00
2023-03-29T03:09:53.938Z,88691.00
2023-03-29T03:10:54.018Z,88685.00
2023-03-29T03:11:54.022Z,88679.00
2023-03-29T03:12:54.076Z,88675.00
2023-03-29T03:13:54.132Z,88677.00
2023-03-29T03:14:54.192Z,88679.00
2023-03-29T03:15:54.279Z,88685.00
2023-03-29T03:16:54.255Z,88687.00
2023-03-29T03:17:54.332Z,88693.00
2023-03-29T03:18:54.369Z,88691.00
2023-03-29T03:19:54.389Z,88693.00
2023-03-29T03:20:54.438Z,88695.00
2023-03-29T03:21:54.494Z,88697.00
2023-03-29T03:22:54.586Z,88697.00
2023-03-29T03:23:54.598Z,88701.00
2023-03-29T03:24:54.609Z,88703.00
2023-03-29T03:25:54.650Z,88701.00
2023-03-29T03:26:54.684Z,88701.00
2023-03-29T03:27:54.748Z,88697.00
2023-03-29T03:28:54.809Z,88695.00
2023-03-29T03:29:54.820Z,88697.00
2023-03-29T03:30:54.855Z,88695.00
2023-03-29T03:31:54.941Z,88695.00
2023-03-29T03:32:55.029Z,88691.00
2023-03-29T03:33:55.008Z,88691.00
2023-03-29T03:34:55.040Z,88695.00
2023-03-29T03:35:55.107Z,88691.00
2023-03-29T03:36:55.136Z,88689.00
2023-03-29T03:37:55.188Z,88693.00
2023-03-29T03:38:55.236Z,88695.00
2023-03-29T03:39:55.248Z,88701.00
2023-03-29T03:40:55.319Z,88707.00
2023-03-29T03:41:55.361Z,88715.00
2023-03-29T03:42:55.430Z,88719.00
2023-03-29T03:43:55.480Z,88721.00
2023-03-29T03:44:55.548Z,88724.00
2023-03-29T03:45:55.590Z,88726.00
2023-03-29T03:46:55.630Z,88732.00
2023-03-29T03:47:55.736Z,88740.00
2023-03-29T03:48:55.714Z,88755.00
2023-03-29T03:49:55.800Z,88759.00
2023-03-29T03:50:55.809Z,88771.00
2023-03-29T03:51:55.868Z,88771.00
2023-03-29T03:52:55.909Z,88767.00
2023-03-29T03:53:55.973Z,88763.00
2023-03-29T03:54:55.959Z,88761.00
2023-03-29T04:00:55.893Z,88738.00
2023-03-29T04:01:55.944Z,88734.00
2023-03-29T04:02:56.015Z,88738.00
2023-03-29T04:03:56.054Z,88738.00
2023-03-29T04:05:55.828Z,88740.00
2023-03-29T04:10:55.771Z,88740.00
2023-03-29T04:11:55.758Z,88738.00
2023-03-29T04:12:55.732Z,88736.00
2023-03-29T04:15:55.776Z,88734.00
2023-03-29T04:19:55.696Z,88721.00
2023-03-29T04:21:55.652Z,88717.00
2023-03-29T04:23:55.629Z,88711.00
2023-03-29T04:25:55.610Z,88705.00
2023-03-29T04:28:55.563Z,88701.00
2023-03-29T04:32:55.625Z,88705.00
2023-03-29T04:35:55.484Z,88703.00
2023-03-29T04:37:55.418Z,88689.00
2023-03-29T04:38:55.396Z,88683.00
2023-03-29T04:42:55.354Z,88683.00
2023-03-29T04:45:55.382Z,88687.00
2023-03-29T04:47:55.348Z,88689.00
2023-03-29T04:49:55.301Z,88683.00
2023-03-29T04:52:55.278Z,88689.00
2023-03-29T04:53:55.278Z,88683.00
2023-03-29T04:54:55.289Z,88685.00
2023-03-29T04:58:55.214Z,88674.00
2023-03-29T05:00:55.193Z,88664.00
2023-03-29T05:03:55.215Z,88664.00
2023-03-29T05:04:55.182Z,88666.00
2023-03-29T05:06:55.167Z,88654.00
2023-03-29T05:07:55.169Z,88660.00
2023-03-29T05:10:55.132Z,88660.00
2023-03-29T05:12:55.100Z,88668.00
2023-03-29T05:17:55.083Z,88658.00
2023-03-29T05:18:55.089Z,88654.00
2023-03-29T05:19:55.085Z,88654.00
2023-03-29T05:22:55.034Z,88652.00
2023-03-29T05:23:55.042Z,88656.00
2023-03-29T05:24:55.099Z,88650.00
2023-03-29T05:25:55.022Z,88650.00
2023-03-29T05:29:54.998Z,88658.00
2023-03-29T05:32:54.981Z,88664.00
2023-03-29T05:33:55.000Z,88660.00
2023-03-29T05:35:54.928Z,88654.00
2023-03-29T05:38:54.824Z,88650.00
2023-03-29T05:39:54.827Z,88664.00
2023-03-29T05:41:54.807Z,88650.00
2023-03-29T05:42:54.775Z,88650.00
2023-03-29T05:47:54.761Z,88652.00
2023-03-29T05:48:54.726Z,88650.00
2023-03-29T05:49:54.740Z,88652.00
2023-03-29T05:51:55.267Z,88658.00
2023-03-29T05:54:54.589Z,88648.00
2023-03-29T05:55:54.602Z,88652.00
2023-03-29T05:56:54.745Z,88656.00
2023-03-29T05:57:54.529Z,88656.00
2023-03-29T06:04:54.527Z,88660.00
2023-03-29T06:08:54.384Z,88652.00
2023-03-29T06:09:54.389Z,88656.00
2023-03-29T06:11:54.354Z,88668.00
2023-03-29T06:12:54.408Z,88674.00
2023-03-29T06:14:54.383Z,88664.00
2023-03-29T06:15:54.494Z,88664.00
2023-03-29T06:20:54.353Z,88660.00
2023-03-29T06:23:54.336Z,88670.00
2023-03-29T06:24:54.449Z,88670.00
2023-03-29T06:25:54.347Z,88666.00
2023-03-29T06:27:54.350Z,88668.00
2023-03-29T06:30:54.443Z,88674.00
2023-03-29T06:31:54.425Z,88681.00
2023-03-29T06:33:54.345Z,88675.00
2023-03-29T06:34:54.355Z,88672.00
2023-03-29T06:35:54.395Z,88675.00
2023-03-29T06:38:54.320Z,88683.00
2023-03-29T06:39:54.328Z,88683.00
2023-03-29T06:40:54.343Z,88681.00
2023-03-29T06:42:54.358Z,88683.00
2023-03-29T06:43:54.267Z,88687.00
2023-03-29T06:46:54.361Z,88687.00
2023-03-29T06:47:54.295Z,88693.00
2023-03-29T06:51:54.142Z,88687.00
2023-03-29T06:52:54.115Z,88685.00
2023-03-29T06:53:54.174Z,88691.00
2023-03-29T06:55:54.068Z,88691.00
2023-03-29T06:56:54.091Z,88695.00
2023-03-29T06:58:54.044Z,88695.00
2023-03-29T06:59:54.008Z,88697.00
2023-03-29T07:04:53.925Z,88699.00
2023-03-29T07:05:53.896Z,88699.00
2023-03-29T07:07:53.871Z,88695.00
2023-03-29T07:08:53.839Z,88689.00
2023-03-29T07:09:54.112Z,88691.00
2023-03-29T07:10:53.811Z,88691.00
2023-03-29T07:11:53.830Z,88693.00
2023-03-29T07:12:53.865Z,88693.00
2023-03-29T07:15:53.835Z,88695.00
2023-03-29T07:18:53.656Z,88691.00
2023-03-29T07:19:53.676Z,88693.00
2023-03-29T07:21:53.616Z,88703.00
2023-03-29T07:22:53.575Z,88699.00
2023-03-29T07:23:53.609Z,88699.00
2023-03-29T07:27:03.390Z,88695.00
2023-03-29T07:27:54.563Z,88697.00
2023-03-29T07:30:53.569Z,88697.00
2023-03-29T07:32:53.619Z,88699.00
2023-03-29T07:34:53.417Z,88701.00
2023-03-29T07:36:53.300Z,88701.00
2023-03-29T07:39:53.191Z,88695.00
2023-03-29T07:42:53.127Z,88695.00
2023-03-29T07:43:53.096Z,88695.00
2023-03-29T07:44:53.468Z,88699.00
2023-03-29T07:45:53.097Z,88701.00
2023-03-29T07:46:53.031Z,88703.00
2023-03-29T07:47:53.091Z,88701.00
2023-03-29T07:51:52.973Z,88693.00
2023-03-29T07:53:52.994Z,88697.00
2023-03-29T07:54:52.968Z,88703.00
2023-03-29T07:55:52.905Z,88701.00
2023-03-29T07:56:53.170Z,88695.00
2023-03-29T07:57:52.991Z,88689.00
2023-03-29T08:00:52.812Z,88691.00
2023-03-29T08:04:52.767Z,88691.00
2023-03-29T08:06:52.701Z,88695.00
2023-03-29T08:07:52.655Z,88699.00
2023-03-29T08:08:52.615Z,88703.00
2023-03-29T08:09:52.596Z,88691.00
2023-03-29T08:15:52.572Z,88697.00
2023-03-29T08:16:52.548Z,88697.00
2023-03-29T08:17:52.571Z,88701.00
2023-03-29T08:18:52.443Z,88701.00
2023-03-29T08:19:52.515Z,88701.00
2023-03-29T08:20:53.378Z,88711.00
2023-03-29T08:24:52.273Z,88717.00
2023-03-29T08:26:52.219Z,88715.00
2023-03-29T08:27:52.256Z,88713.00
2023-03-29T08:29:52.159Z,88709.00
2023-03-29T08:30:52.251Z,88699.00
2023-03-29T08:35:52.020Z,88703.00
2023-03-29T08:36:52.020Z,88711.00
2023-03-29T08:37:52.116Z,88711.00
2023-03-29T08:38:51.973Z,88705.00
2023-03-29T08:39:51.915Z,88701.00
2023-03-29T08:40:52.799Z,88695.00
2023-03-29T08:41:51.878Z,88695.00
2023-03-29T08:42:51.884Z,88693.00
2023-03-29T08:44:51.789Z,88707.00
2023-03-29T08:45:51.888Z,88711.00
2023-03-29T08:48:51.788Z,88709.00
2023-03-29T08:49:51.943Z,88707.00
2023-03-29T08:50:51.994Z,88703.00
2023-03-29T08:51:51.705Z,88709.00
2023-03-29T08:55:51.583Z,88715.00
2023-03-29T08:58:51.586Z,88724.00
2023-03-29T08:59:51.507Z,88728.00
2023-03-29T09:02:51.620Z,88732.00
2023-03-29T09:03:51.938Z,88730.00
2023-03-29T09:04:51.410Z,88730.00
2023-03-29T09:05:52.445Z,88730.00
2023-03-29T09:07:51.402Z,88732.00
2023-03-29T09:08:51.540Z,88730.00
2023-03-29T09:09:51.273Z,88726.00
2023-03-29T09:10:51.454Z,88728.00
2023-03-29T09:13:51.191Z,88732.00
2023-03-29T09:17:51.049Z,88726.00
2023-03-29T09:18:51.275Z,88726.00
2023-03-29T09:21:50.962Z,88730.00
2023-03-29T09:22:50.870Z,88732.00
2023-03-29T09:23:50.847Z,88732.00
2023-03-29T09:25:54.090Z,88738.00
2023-03-29T09:29:50.783Z,88738.00
2023-03-29T09:31:50.878Z,88734.00
2023-03-29T09:33:50.537Z,88734.00
2023-03-29T09:34:50.540Z,88740.00
2023-03-29T09:36:50.420Z,88742.00
2023-03-29T09:40:50.294Z,88744.00
2023-03-29T09:41:50.341Z,88751.00
2023-03-29T09:43:50.554Z,88744.00
2023-03-29T09:44:50.240Z,88744.00
2023-03-29T09:48:50.017Z,88738.00
2023-03-29T09:51:49.938Z,88740.00
2023-03-29T09:53:49.874Z,88734.00
2023-03-29T09:55:50.608Z,88732.00
2023-03-29T09:56:49.899Z,88734.00
2023-03-29T10:01:49.642Z,88721.00
2023-03-29T10:02:49.605Z,88717.00
2023-03-29T10:03:49.620Z,88713.00
2023-03-29T10:04:49.504Z,88711.00
2023-03-29T10:08:49.468Z,88703.00
2023-03-29T10:11:49.353Z,88703.00
2023-03-29T10:12:49.247Z,88701.00
2023-03-29T10:13:49.247Z,88701.00
2023-03-29T10:14:52.992Z,88697.00
2023-03-29T10:17:49.114Z,88691.00
2023-03-29T10:21:48.978Z,88687.00
2023-03-29T10:22:48.904Z,88689.00
2023-03-29T10:24:48.849Z,88685.00
2023-03-29T10:27:48.737Z,88666.00
2023-03-29T10:28:48.697Z,88668.00
2023-03-29T10:32:48.610Z,88668.00
2023-03-29T10:34:48.492Z,88666.00
2023-03-29T10:36:48.502Z,88662.00
2023-03-29T10:37:48.492Z,88660.00
2023-03-29T10:38:48.372Z,88656.00
2023-03-29T10:40:48.368Z,88652.00
2023-03-29T10:41:48.263Z,88654.00
2023-03-29T10:42:48.345Z,88658.00
2023-03-29T10:47:48.122Z,88654.00
2023-03-29T10:48:48.029Z,88658.00
2023-03-29T10:50:48.000Z,88658.00
2023-03-29T10:51:47.898Z,88656.00
2023-03-29T10:52:47.869Z,88656.00
2023-03-29T10:56:47.748Z,88670.00
2023-03-29T10:57:47.797Z,88670.00
2023-03-29T10:59:47.670Z,88662.00
2023-03-29T11:00:47.608Z,88660.00
2023-03-29T11:01:47.640Z,88660.00
2023-03-29T11:02:47.636Z,88664.00
2023-03-29T11:03:47.553Z,88660.00
2023-03-29T11:04:47.578Z,88658.00
2023-03-29T11:06:47.431Z,88654.00
2023-03-29T11:09:47.423Z,88662.00
2023-03-29T11:10:47.363Z,88664.00
2023-03-29T11:11:47.365Z,88664.00
2023-03-29T11:12:47.241Z,88664.00
2023-03-29T11:13:47.183Z,88664.00
2023-03-29T11:14:47.201Z,88664.00
2023-03-29T11:16:47.134Z,88664.00
2023-03-29T11:19:47.019Z,88654.00
2023-03-29T11:20:46.982Z,88656.00
2023-03-29T11:23:46.895Z,88654.00
2023-03-29T11:24:46.870Z,88656.00
2023-03-29T11:26:46.815Z,88660.00
2023-03-29T11:28:46.802Z,88668.00
2023-03-29T11:31:46.692Z,88662.00
2023-03-29T11:32:46.724Z,88656.00
2023-03-29T11:34:46.538Z,88656.00
2023-03-29T11:37:46.430Z,88654.00
2023-03-29T11:39:46.581Z,88656.00
2023-03-29T11:41:46.293Z,88652.00
2023-03-29T11:44:46.938Z,88642.00
2023-03-29T11:45:46.283Z,88638.00
2023-03-29T11:47:46.149Z,88636.00
2023-03-29T11:48:46.032Z,88638.00
2023-03-29T11:49:46.000Z,88642.00
2023-03-29T11:54:45.856Z,88636.00
2023-03-29T11:56:45.916Z,88646.00
2023-03-29T11:57:45.722Z,88644.00
2023-03-29T11:58:45.701Z,88646.00
2023-03-29T12:00:45.662Z,88646.00
2023-03-29T12:01:45.609Z,88644.00
2023-03-29T12:06:45.449Z,88642.00
2023-03-29T12:07:45.400Z,88640.00
2023-03-29T12:09:45.321Z,88642.00
2023-03-29T12:10:45.277Z,88646.00
2023-03-29T12:11:45.249Z,88644.00
2023-03-29T12:13:45.171Z,88636.00
2023-03-29T12:18:44.988Z,88626.00
2023-03-29T12:19:44.996Z,88620.00
2023-03-29T12:20:44.975Z,88619.00
2023-03-29T12:22:44.884Z,88619.00
2023-03-29T12:25:44.819Z,88619.00
2023-03-29T12:26:44.766Z,88619.00
2023-03-29T12:28:44.712Z,88615.00
2023-03-29T12:31:44.797Z,88603.00
2023-03-29T12:32:45.006Z,88605.00
2023-03-29T12:33:44.540Z,88603.00
2023-03-29T12:37:44.428Z,88597.00
2023-03-29T12:39:44.341Z,88599.00
2023-03-29T12:41:44.895Z,88595.00
2023-03-29T12:42:44.342Z,88599.00
2023-03-29T12:44:44.175Z,88593.00
2023-03-29T12:45:44.226Z,88591.00
2023-03-29T12:46:44.199Z,88589.00
2023-03-29T12:47:44.106Z,88585.00
2023-03-29T12:48:44.094Z,88585.00
2023-03-29T12:50:44.080Z,88585.00
2023-03-29T12:51:43.949Z,88587.00
2023-03-29T12:53:41.190Z,88589.00
2023-03-29T12:54:41.209Z,88589.00
2023-03-29T12:55:41.201Z,88591.00
2023-03-29T12:56:41.238Z,88589.00
2023-03-29T12:57:41.213Z,88587.00
2023-03-29T12:58:41.184Z,88587.00
2023-03-29T12:59:41.157Z,88587.00
2023-03-29T13:00:41.136Z,88585.00
2023-03-29T13:01:41.353Z,88587.00
2023-03-29T13:02:41.303Z,88587.00
2023-03-29T13:03:41.135Z,88587.00
2023-03-29T13:04:41.078Z,88587.00
2023-03-29T13:05:41.068Z,88581.00
2023-03-29T13:06:41.101Z,88581.00
2023-03-29T13:07:41.040Z,88577.00
2023-03-29T13:08:41.032Z,88577.00
2023-03-29T13:09:41.120Z,88575.00
2023-03-29T13:10:40.992Z,88573.00
2023-03-29T13:11:41.010Z,88575.00
2023-03-29T13:12:40.972Z,88579.00
2023-03-29T13:13:40.967Z,88575.00
2023-03-29T13:14:40.960Z,88577.00
2023-03-29T13:15:40.998Z,88577.00
2023-03-29T13:16:40.932Z,88579.00
2023-03-29T13:17:40.935Z,88577.00
2023-03-29T13:18:40.932Z,88577.00
2023-03-29T13:19:40.881Z,88577.00
2023-03-29T13:20:40.897Z,88579.00
2023-03-29T13:21:40.886Z,88579.00
2023-03-29T13:22:40.859Z,88579.00
2023-03-29T13:23:40.840Z,88579.00
2023-03-29T13:24:40.923Z,88577.00
2023-03-29T13:25:40.814Z,88577.00
2023-03-29T13:26:40.931Z,88577.00
2023-03-29T13:27:40.843Z,88573.00
2023-03-29T13:28:40.807Z,88575.00
2023-03-29T13:29:40.825Z,88577.00
2023-03-29T13:30:40.848Z,88573.00
2023-03-29T13:31:40.962Z,88577.00
2023-03-29T13:32:40.821Z,88579.00
2023-03-29T13:33:40.763Z,88581.00
2023-03-29T13:34:40.769Z,88579.00
2023-03-29T13:35:40.770Z,88579.00
2023-03-29T13:36:40.749Z,88572.00
2023-03-29T13:37:40.825Z,88573.00
2023-03-29T13:38:40.726Z,88573.00
2023-03-29T13:39:40.814Z,88579.00
2023-03-29T13:40:40.746Z,88577.00
2023-03-29T13:41:40.721Z,88579.00
2023-03-29T13:42:40.749Z,88577.00
2023-03-29T13:43:40.690Z,88577.00
2023-03-29T13:44:40.797Z,88579.00
2023-03-29T13:45:40.773Z,88581.00
2023-03-29T13:46:40.942Z,88585.00
2023-03-29T13:47:41.805Z,88587.00
2023-03-29T13:48:40.895Z,88589.00
2023-03-29T13:49:40.946Z,88591.00
2023-03-29T13:50:40.974Z,88597.00
2023-03-29T13:51:41.095Z,88599.00
2023-03-29T13:52:41.093Z,88601.00
2023-03-29T13:53:41.159Z,88599.00
2023-03-29T13:54:41.169Z,88601.00
2023-03-29T13:55:41.212Z,88601.00
2023-03-29T13:56:41.266Z,88599.00
2023-03-29T13:57:41.345Z,88603.00
2023-03-29T13:58:41.344Z,88601.00
2023-03-29T13:59:41.381Z,88599.00
2023-03-29T14:00:41.443Z,88599.00
2023-03-29T14:01:41.379Z,88601.00
2023-03-29T14:02:41.446Z,88601.00
2023-03-29T14:03:41.329Z,88601.00
2023-03-29T14:04:41.308Z,88601.00
2023-03-29T14:05:41.335Z,88601.00
2023-03-29T14:06:41.282Z,88607.00
2023-03-29T14:07:41.264Z,88607.00
2023-03-29T14:08:41.293Z,88609.00
2023-03-29T14:09:41.238Z,88605.00
2023-03-29T14:10:41.238Z,88603.00
2023-03-29T14:11:41.250Z,88601.00
2023-03-29T14:12:42.055Z,88607.00
2023-03-29T14:13:41.187Z,88605.00
2023-03-29T14:14:55.710Z,88599.00
2023-03-29T14:15:42.200Z,88599.00
2023-03-29T14:16:41.152Z,88601.00
2023-03-29T14:17:41.206Z,88599.00
2023-03-29T14:18:41.085Z,88607.00
2023-03-29T14:19:41.092Z,88605.00
2023-03-29T14:20:41.094Z,88603.00
2023-03-29T14:21:41.044Z,88599.00
2023-03-29T14:22:41.060Z,88601.00
2023-03-29T14:23:41.017Z,88601.00
2023-03-29T14:24:41.015Z,88603.00
2023-03-29T14:25:40.990Z,88599.00
2023-03-29T14:26:40.998Z,88597.00
2023-03-29T14:27:41.038Z,88601.00
2023-03-29T14:28:41.084Z,88599.00
2023-03-29T14:29:41.123Z,88599.00
2023-03-29T14:30:41.166Z,88603.00
2023-03-29T14:31:41.234Z,88595.00
2023-03-29T14:32:41.322Z,88599.00
2023-03-29T14:33:41.320Z,88601.00
2023-03-29T14:34:41.331Z,88599.00
2023-03-29T14:35:41.346Z,88599.00
2023-03-29T14:36:41.386Z,88601.00
2023-03-29T14:37:41.247Z,88597.00
2023-03-29T14:38:41.216Z,88593.00
2023-03-29T14:39:41.197Z,88597.00
2023-03-29T14:40:41.199Z,88597.00
2023-03-29T14:41:41.162Z,88595.00
2023-03-29T14:42:41.160Z,88599.00
2023-03-29T14:43:41.135Z,88595.00
2023-03-29T14:44:41.126Z,88599.00
2023-03-29T14:45:41.128Z,88601.00
2023-03-29T14:46:41.201Z,88597.00
2023-03-29T14:47:41.114Z,88601.00
2023-03-29T14:48:41.040Z,88599.00
2023-03-29T14:49:41.019Z,88593.00
2023-03-29T14:50:40.988Z,88595.00
2023-03-29T14:51:40.993Z,88597.00
2023-03-29T14:52:40.967Z,88597.00
2023-03-29T14:53:40.951Z,88599.00
2023-03-29T14:54:40.911Z,88599.00
2023-03-29T14:55:40.919Z,88599.00
2023-03-29T14:56:40.905Z,88597.00
2023-03-29T14:57:40.891Z,88597.00
2023-03-29T14:58:40.870Z,88595.00
2023-03-29T14:59:40.880Z,88599.00
2023-03-29T15:00:40.844Z,88599.00
2023-03-29T15:01:40.870Z,88603.00
2023-03-29T15:02:40.929Z,88605.00
2023-03-29T15:03:41.009Z,88603.00
2023-03-29T15:04:40.844Z,88605.00
2023-03-29T15:05:40.840Z,88607.00
2023-03-29T15:06:40.819Z,88605.00
2023-03-29T15:07:40.825Z,88607.00
2023-03-29T15:08:44.088Z,88607.00
2023-03-29T15:09:41.799Z,88609.00
2023-03-29T15:10:42.993Z,88607.00
2023-03-29T15:11:40.771Z,88611.00
2023-03-29T15:12:40.769Z,88611.00
2023-03-29T15:13:40.757Z,88611.00
2023-03-29T15:14:40.748Z,88615.00
2023-03-29T15:15:40.773Z,88615.00
2023-03-29T15:16:40.728Z,88615.00
2023-03-29T15:17:50.896Z,88615.00
2023-03-29T15:18:41.704Z,88615.00
2023-03-29T15:19:40.687Z,88617.00
2023-03-29T15:20:40.668Z,88617.00
2023-03-29T15:21:40.661Z,88620.00
2023-03-29T15:22:40.635Z,88620.00
2023-03-29T15:23:40.619Z,88624.00
2023-03-29T15:24:40.612Z,88620.00
2023-03-29T15:25:40.591Z,88619.00
2023-03-29T15:26:40.590Z,88619.00
2023-03-29T15:27:40.572Z,88615.00
2023-03-29T15:28:40.548Z,88615.00
2023-03-29T15:29:40.556Z,88613.00
2023-03-29T15:30:40.548Z,88615.00
2023-03-29T15:31:40.566Z,88615.00
2023-03-29T15:32:40.595Z,88615.00
2023-03-29T15:33:40.666Z,88617.00
2023-03-29T15:34:40.494Z,88617.00
2023-03-29T15:35:40.543Z,88617.00
2023-03-29T15:36:40.530Z,88613.00
2023-03-29T15:37:40.488Z,88613.00
2023-03-29T15:38:44.182Z,88609.00
2023-03-29T15:39:40.437Z,88611.00
2023-03-29T15:40:40.445Z,88607.00
2023-03-29T15:41:40.407Z,88609.00
2023-03-29T15:42:40.401Z,88609.00
2023-03-29T15:43:40.381Z,88609.00
2023-03-29T15:44:40.366Z,88611.00
2023-03-29T15:45:40.357Z,88611.00
2023-03-29T15:46:40.383Z,88605.00
2023-03-29T15:47:40.364Z,88603.00
2023-03-29T15:48:40.331Z,88603.00
2023-03-29T15:49:40.318Z,88597.00
2023-03-29T15:50:40.304Z,88597.00
2023-03-29T15:51:40.284Z,88597.00
2023-03-29T15:52:40.289Z,88595.00
2023-03-29T15:53:40.293Z,88595.00
2023-03-29T15:54:40.297Z,88595.00
2023-03-29T15:55:40.270Z,88595.00
2023-03-29T15:56:42.588Z,88597.00
2023-03-29T15:57:40.333Z,88593.00
2023-03-29T15:58:40.251Z,88593.00
2023-03-29T15:59:40.223Z,88595.00
2023-03-29T16:00:40.227Z,88591.00
2023-03-29T16:01:40.274Z,88591.00
2023-03-29T16:02:40.327Z,88591.00
2023-03-29T16:03:40.200Z,88593.00
2023-03-29T16:04:40.152Z,88591.00
2023-03-29T16:05:40.127Z,88591.00
2023-03-29T16:06:40.101Z,88591.00
2023-03-29T16:07:40.105Z,88591.00
2023-03-29T16:08:40.080Z,88591.00
2023-03-29T16:09:40.059Z,88589.00
2023-03-29T16:10:40.057Z,88587.00
2023-03-29T16:11:40.036Z,88587.00
2023-03-29T16:12:40.026Z,88587.00
2023-03-29T16:13:40.066Z,88589.00
2023-03-29T16:14:41.879Z,88587.00
2023-03-29T16:15:39.996Z,88585.00
2023-03-29T16:16:40.003Z,88581.00
2023-03-29T16:17:40.027Z,88583.00
2023-03-29T16:18:39.940Z,88583.00
2023-03-29T16:19:39.938Z,88585.00
2023-03-29T16:20:39.945Z,88585.00
2023-03-29T16:21:39.922Z,88585.00
2023-03-29T16:22:39.917Z,88581.00
2023-03-29T16:23:39.907Z,88581.00
2023-03-29T16:24:39.887Z,88581.00
2023-03-29T16:25:39.925Z,88579.00
2023-03-29T16:26:39.862Z,88585.00
2023-03-29T16:27:39.868Z,88583.00
2023-03-29T16:28:39.861Z,88585.00
2023-03-29T16:29:39.833Z,88587.00
2023-03-29T16:30:39.819Z,88587.00
2023-03-29T16:31:39.842Z,88589.00
2023-03-29T16:32:39.883Z,88589.00
2023-03-29T16:33:39.808Z,88585.00
2023-03-29T16:34:39.786Z,88589.00
2023-03-29T16:35:39.872Z,88591.00
2023-03-29T16:36:39.739Z,88593.00
2023-03-29T16:37:39.755Z,88591.00
2023-03-29T16:38:39.748Z,88593.00
2023-03-29T16:39:39.743Z,88593.00
2023-03-29T16:40:39.733Z,88599.00
2023-03-29T16:41:39.767Z,88595.00
2023-03-29T16:42:39.770Z,88595.00
2023-03-29T16:43:39.779Z,88595.00
2023-03-29T16:44:39.719Z,88595.00
2023-03-29T16:45:39.718Z,88591.00
2023-03-29T16:46:39.717Z,88591.00
2023-03-29T16:47:39.702Z,88595.00
2023-03-29T16:48:39.707Z,88593.00
2023-03-29T16:49:40.242Z,88591.00